createdAt,value
2023-04-20T00:01:24.837Z,94633.16
2023-04-20T00:03:52.082Z,94635.38
2023-04-20T00:06:21.730Z,94624.03
2023-04-20T00:08:48.386Z,94624.84
2023-04-20T00:11:14.987Z,94615.91
2023-04-20T00:13:42.980Z,94616.34
2023-04-20T00:16:09.674Z,94609.47
2023-04-20T00:18:36.273Z,94615.53
2023-04-20T00:21:03.549Z,94615.31
2023-04-20T00:23:30.200Z,94598.03
2023-04-20T00:25:56.893Z,94601.13
2023-04-20T00:28:23.727Z,94602.44
2023-04-20T00:30:51.689Z,94600.41
2023-04-20T00:33:18.286Z,94589.41
2023-04-20T00:35:44.977Z,94591.03
2023-04-20T00:38:11.601Z,94588.03
2023-04-20T00:40:38.335Z,94595.94
2023-04-20T00:43:14.726Z,94576.47
2023-04-20T00:45:41.449Z,94569.53
2023-04-20T00:48:09.413Z,94567.09
2023-04-20T00:50:37.940Z,94570.19
2023-04-20T00:53:05.039Z,94565.13
2023-04-20T00:55:31.697Z,94566.97
2023-04-20T00:57:58.908Z,94559.28
2023-04-20T01:00:26.553Z,94561.91
2023-04-20T01:02:53.312Z,94553.00
2023-04-20T01:05:21.857Z,94559.28
2023-04-20T01:07:48.743Z,94556.88
2023-04-20T01:10:15.759Z,94558.25
2023-04-20T01:12:42.393Z,94550.78
2023-04-20T01:15:09.662Z,94548.75
2023-04-20T01:17:39.760Z,94549.78
2023-04-20T01:20:09.371Z,94548.53
2023-04-20T01:22:47.608Z,94553.00
2023-04-20T01:25:14.720Z,94551.38
2023-04-20T01:27:41.412Z,94544.94
2023-04-20T01:30:09.071Z,94541.28
2023-04-20T01:32:35.829Z,94527.91
2023-04-20T01:35:03.196Z,94533.38
2023-04-20T01:37:30.183Z,94528.56
2023-04-20T01:39:58.207Z,94521.03
2023-04-20T01:42:24.976Z,94524.09
2023-04-20T01:44:51.563Z,94523.28
2023-04-20T01:47:18.742Z,94524.31
2023-04-20T01:49:45.452Z,94516.41
2023-04-20T01:52:12.137Z,94517.44
2023-04-20T01:54:38.728Z,94515.03
2023-04-20T01:57:06.749Z,94518.47
2023-04-20T01:59:33.323Z,94514.22
2023-04-20T02:02:00.014Z,94509.19
2023-04-20T02:04:26.759Z,94511.38
2023-04-20T02:06:53.354Z,94491.19
2023-04-20T02:09:19.951Z,94501.88
2023-04-20T02:11:46.514Z,94501.66
2023-04-20T02:14:14.453Z,94497.13
2023-04-20T02:16:41.458Z,94484.81
2023-04-20T02:19:08.644Z,94491.59
2023-04-20T02:21:35.412Z,94493.28
2023-04-20T02:24:02.076Z,94500.38
2023-04-20T02:26:28.698Z,94496.75
2023-04-20T02:28:55.340Z,94494.22
2023-04-20T02:31:23.391Z,94488.25
2023-04-20T02:33:50.199Z,94490.09
2023-04-20T02:36:16.781Z,94489.22
2023-04-20T02:38:43.389Z,94492.22
2023-04-20T02:41:10.016Z,94479.88
2023-04-20T02:43:36.649Z,94476.22
2023-04-20T02:46:03.261Z,94472.34
2023-04-20T02:48:31.265Z,94466.84
2023-04-20T02:50:57.846Z,94466.72
2023-04-20T02:53:24.450Z,94461.72
2023-04-20T02:55:51.029Z,94459.72
2023-04-20T02:58:17.660Z,94457.81
2023-04-20T03:00:44.327Z,94440.66
2023-04-20T03:03:11.078Z,94449.75
2023-04-20T03:05:39.147Z,94449.22
2023-04-20T03:08:07.231Z,94451.06
2023-04-20T03:10:34.003Z,94448.59
2023-04-20T03:13:00.733Z,94449.97
2023-04-20T03:15:27.418Z,94446.31
2023-04-20T03:17:54.129Z,94448.94
2023-04-20T03:20:20.693Z,94451.56
2023-04-20T03:22:48.679Z,94445.28
2023-04-20T03:25:15.310Z,94448.94
2023-04-20T03:27:41.952Z,94442.44
2023-04-20T03:30:09.694Z,94436.16
2023-04-20T03:32:36.350Z,94441.41
2023-04-20T03:35:03.047Z,94439.59
2023-04-20T03:37:29.649Z,94427.22
2023-04-20T03:39:57.720Z,94428.47
2023-04-20T03:42:24.311Z,94426.88
2023-04-20T03:44:50.868Z,94424.81
2023-04-20T03:47:17.608Z,94421.97
2023-04-20T03:49:44.327Z,94408.81
2023-04-20T03:52:10.886Z,94416.34
2023-04-20T03:54:37.484Z,94406.03
2023-04-20T03:57:06.033Z,94403.75
2023-04-20T03:59:32.647Z,94399.53
2023-04-20T04:02:00.238Z,94402.28
2023-04-20T04:04:27.161Z,94395.34
2023-04-20T04:06:53.935Z,94395.06
2023-04-20T04:09:20.572Z,94391.63
2023-04-20T04:11:47.215Z,94394.78
2023-04-20T04:14:15.179Z,94392.75
2023-04-20T04:16:41.788Z,94392.75
2023-04-20T04:19:08.427Z,94390.91
2023-04-20T04:21:35.115Z,94389.88
2023-04-20T04:24:01.772Z,94393.53
2023-04-20T04:26:28.746Z,94401.22
2023-04-20T04:28:56.087Z,94395.16
2023-04-20T04:31:24.432Z,94396.75
2023-04-20T04:33:51.294Z,94397.78
2023-04-20T04:36:17.949Z,94389.88
2023-04-20T04:38:44.829Z,94379.34
2023-04-20T04:41:12.655Z,94379.34
2023-04-20T04:43:39.852Z,94384.41
2023-04-20T04:46:08.597Z,94383.00
2023-04-20T04:48:37.273Z,94386.22
2023-04-20T04:51:04.418Z,94375.47
2023-04-20T04:53:31.020Z,94372.72
2023-04-20T04:55:57.601Z,94373.94
2023-04-20T04:58:24.259Z,94377.75
2023-04-20T05:00:50.927Z,94364.69
2023-04-20T05:03:17.737Z,94366.13
2023-04-20T05:05:46.264Z,94369.72
2023-04-20T05:08:12.957Z,94370.75
2023-04-20T05:10:39.860Z,94364.09
2023-04-20T05:13:06.428Z,94362.84
2023-04-20T05:15:33.145Z,94370.97
2023-04-20T05:17:59.759Z,94371.78
2023-04-20T05:20:26.837Z,94369.94
2023-04-20T05:22:54.778Z,94374.63
2023-04-20T05:25:21.800Z,94379.88
2023-04-20T05:27:48.467Z,94381.28
2023-04-20T05:30:21.256Z,94377.38
2023-04-20T05:32:51.143Z,94378.19
2023-04-20T05:35:18.954Z,94381.41
2023-04-20T05:37:47.336Z,94369.72
2023-04-20T05:40:15.933Z,94370.00
2023-04-20T05:42:42.588Z,94366.72
2023-04-20T05:45:10.781Z,94364.22
2023-04-20T05:47:37.492Z,94366.13
2023-04-20T05:50:05.045Z,94359.47
2023-04-20T05:52:31.760Z,94354.16
2023-04-20T05:54:59.479Z,94361.25
2023-04-20T05:57:27.502Z,94360.81
2023-04-20T05:59:55.884Z,94350.28
2023-04-20T06:02:23.050Z,94349.75
2023-04-20T06:04:49.954Z,94338.16
2023-04-20T06:07:16.845Z,94337.88
2023-04-20T06:09:43.574Z,94347.19
2023-04-20T06:12:10.328Z,94350.78
2023-04-20T06:14:38.288Z,94341.50
2023-04-20T06:17:04.892Z,94339.19
2023-04-20T06:19:31.728Z,94334.34
2023-04-20T06:22:00.727Z,94338.97
2023-04-20T06:24:27.972Z,94342.81
2023-04-20T06:26:54.928Z,94337.69
2023-04-20T06:29:21.639Z,94339.63
2023-04-20T06:31:49.738Z,94324.13
2023-04-20T06:34:16.578Z,94337.91
2023-04-20T06:36:43.832Z,94338.28
2023-04-20T06:39:13.675Z,94334.50
2023-04-20T06:41:40.334Z,94341.38
2023-04-20T06:44:07.040Z,94345.56
2023-04-20T06:46:33.773Z,94342.59
2023-04-20T06:49:01.902Z,94348.69
2023-04-20T06:51:29.162Z,94341.44
2023-04-20T06:53:55.777Z,94347.94
2023-04-20T06:56:22.557Z,94341.56
2023-04-20T06:58:49.248Z,94341.97
2023-04-20T07:01:16.080Z,94349.69
2023-04-20T07:03:43.563Z,94344.22
2023-04-20T07:06:11.800Z,94333.53
2023-04-20T07:08:39.221Z,94341.56
2023-04-20T07:11:05.956Z,94341.34
2023-04-20T07:13:33.917Z,94339.19
2023-04-20T07:16:00.835Z,94342.25
2023-04-20T07:18:27.438Z,94342.41
2023-04-20T07:20:54.115Z,94346.72
2023-04-20T07:23:22.091Z,94344.56
2023-04-20T07:25:48.760Z,94345.63
2023-04-20T07:28:15.623Z,94345.53
2023-04-20T07:30:42.278Z,94345.47
2023-04-20T07:33:09.209Z,94345.53
2023-04-20T07:35:35.975Z,94341.72
2023-04-20T07:38:02.695Z,94346.91
2023-04-20T07:40:30.712Z,94354.47
2023-04-20T07:42:57.282Z,94347.59
2023-04-20T07:45:24.214Z,94348.47
2023-04-20T07:47:52.333Z,94350.72
2023-04-20T07:50:18.992Z,94353.41
2023-04-20T07:52:45.621Z,94358.69
2023-04-20T07:55:14.082Z,94359.91
2023-04-20T07:57:42.511Z,94354.94
2023-04-20T08:00:10.269Z,94351.13
2023-04-20T08:02:37.015Z,94359.28
2023-04-20T08:05:04.338Z,94350.44
2023-04-20T08:07:31.228Z,94355.69
2023-04-20T08:09:58.927Z,94352.84
2023-04-20T08:12:25.707Z,94347.72
2023-04-20T08:14:53.772Z,94353.34
2023-04-20T08:17:20.565Z,94342.25
2023-04-20T08:19:47.248Z,94350.94
2023-04-20T08:22:13.937Z,94343.03
2023-04-20T08:24:40.574Z,94340.41
2023-04-20T08:27:08.406Z,94343.41
2023-04-20T08:29:35.024Z,94333.69
2023-04-20T08:32:03.558Z,94346.41
2023-04-20T08:34:30.194Z,94344.00
2023-04-20T08:36:56.811Z,94350.84
2023-04-20T08:39:24.420Z,94357.72
2023-04-20T08:41:53.918Z,94358.38
2023-04-20T08:44:20.746Z,94354.50
2023-04-20T08:46:48.971Z,94351.88
2023-04-20T08:49:18.515Z,94350.63
2023-04-20T08:51:46.172Z,94356.78
2023-04-20T08:54:13.113Z,94344.78
2023-04-20T08:56:41.514Z,94341.34
2023-04-20T08:59:12.786Z,94337.47
2023-04-20T09:01:41.534Z,94360.16
2023-04-20T09:04:20.992Z,94360.25
2023-04-20T09:06:52.661Z,94360.19
2023-04-20T09:09:20.744Z,94365.59
2023-04-20T09:11:48.368Z,94355.56
2023-04-20T09:14:17.020Z,94362.09
2023-04-20T09:16:51.385Z,94362.69
2023-04-20T09:19:23.823Z,94368.06
2023-04-20T09:21:51.489Z,94364.19
2023-04-20T09:24:19.905Z,94350.16
2023-04-20T09:26:47.274Z,94360.50
2023-04-20T09:29:18.079Z,94363.13
2023-04-20T09:31:44.947Z,94353.16
2023-04-20T09:34:12.602Z,94360.13
2023-04-20T09:36:41.917Z,94362.50
2023-04-20T09:39:10.543Z,94368.69
2023-04-20T09:41:38.934Z,94362.81
2023-04-20T09:44:06.693Z,94363.94
2023-04-20T09:46:34.785Z,94369.41
2023-04-20T09:49:03.638Z,94364.47
2023-04-20T09:51:33.386Z,94363.00
2023-04-20T09:54:02.152Z,94360.22
2023-04-20T09:56:29.917Z,94368.03
2023-04-20T09:58:58.187Z,94359.28
2023-04-20T10:01:25.589Z,94359.28
2023-04-20T10:03:56.171Z,94372.78
2023-04-20T10:06:24.608Z,94368.41
2023-04-20T10:08:52.364Z,94357.94
2023-04-20T10:11:37.062Z,94362.81
2023-04-20T10:14:20.181Z,94363.22
2023-04-20T10:16:59.324Z,94359.59
2023-04-20T10:19:36.799Z,94360.63
2023-04-20T10:22:04.198Z,94349.72
2023-04-20T10:24:31.674Z,94351.59
2023-04-20T10:26:59.834Z,94353.28
2023-04-20T10:29:27.652Z,94347.09
2023-04-20T10:31:54.978Z,94350.03
2023-04-20T10:34:30.398Z,94347.69
2023-04-20T10:37:07.398Z,94339.28
2023-04-20T10:39:34.130Z,94336.25
2023-04-20T10:42:02.524Z,94336.56
2023-04-20T10:44:29.217Z,94333.59
2023-04-20T10:46:56.500Z,94332.97
2023-04-20T10:49:26.819Z,94334.75
2023-04-20T10:51:55.855Z,94328.72
2023-04-20T10:54:22.649Z,94326.91
2023-04-20T10:56:51.757Z,94316.66
2023-04-20T10:59:21.763Z,94309.72
2023-04-20T11:01:49.435Z,94305.69
2023-04-20T11:04:18.643Z,94301.81
2023-04-20T11:06:46.954Z,94291.41
2023-04-20T11:09:19.250Z,94298.94
2023-04-20T11:11:46.214Z,94291.03
2023-04-20T11:14:13.391Z,94286.47
2023-04-20T11:16:52.334Z,94286.09
2023-04-20T11:19:27.010Z,94286.59
2023-04-20T11:21:53.921Z,94281.63
2023-04-20T11:24:22.682Z,94243.53
2023-04-20T11:26:50.363Z,94268.06
2023-04-20T11:29:30.759Z,94266.38
2023-04-20T11:31:59.210Z,94274.50
2023-04-20T11:34:26.372Z,94273.59
2023-04-20T11:36:56.806Z,94276.88
2023-04-20T11:39:24.248Z,94267.19
2023-04-20T11:41:52.309Z,94265.22
2023-04-20T11:44:21.205Z,94267.06
2023-04-20T11:46:49.294Z,94269.56
2023-04-20T11:49:17.860Z,94274.75
2023-04-20T11:51:44.957Z,94266.81
2023-04-20T11:54:11.808Z,94261.22
2023-04-20T11:56:38.614Z,94258.94
2023-04-20T11:59:05.360Z,94258.94
2023-04-20T12:01:33.089Z,94271.28
2023-04-20T12:04:02.064Z,94266.63
2023-04-20T12:06:31.766Z,94261.41
2023-04-20T12:08:58.638Z,94254.59
2023-04-20T12:11:25.383Z,94245.13
2023-04-20T12:13:53.518Z,94251.91
2023-04-20T12:16:20.360Z,94245.00
2023-04-20T12:18:47.131Z,94243.50
2023-04-20T12:21:14.089Z,94244.94
2023-04-20T12:23:43.848Z,94238.44
2023-04-20T12:26:10.460Z,94243.16
2023-04-20T12:28:37.091Z,94244.84
2023-04-20T12:31:03.840Z,94239.47
2023-04-20T12:33:31.285Z,94240.41
2023-04-20T12:35:57.923Z,94239.34
2023-04-20T12:38:24.594Z,94233.50
2023-04-20T12:40:52.590Z,94228.50
2023-04-20T12:43:19.186Z,94222.09
2023-04-20T12:45:45.877Z,94216.66
2023-04-20T12:48:12.469Z,94214.16
2023-04-20T12:50:39.081Z,94218.81
2023-04-20T12:53:05.697Z,94219.97
2023-04-20T12:55:32.304Z,94207.97
2023-04-20T12:58:00.288Z,94207.97
2023-04-20T13:00:26.888Z,94208.09
2023-04-20T13:02:54.684Z,94207.59
2023-04-20T13:05:21.599Z,94199.44
2023-04-20T13:07:48.164Z,94205.78
2023-04-20T13:10:14.837Z,94201.34
2023-04-20T13:12:41.650Z,94206.16
2023-04-20T13:15:10.783Z,94207.66
2023-04-20T13:17:37.467Z,94202.84
2023-04-20T13:20:05.040Z,94198.16
2023-04-20T13:22:31.766Z,94196.78
2023-04-20T13:24:58.382Z,94194.25
2023-04-20T13:27:24.993Z,94185.50
2023-04-20T13:29:51.555Z,94199.41
2023-04-20T13:32:19.502Z,94195.81
2023-04-20T13:34:46.371Z,94208.03
2023-04-20T13:37:13.610Z,94203.31
2023-04-20T13:39:40.973Z,94197.09
2023-04-20T13:42:07.545Z,94194.44
2023-04-20T13:44:34.191Z,94202.81
2023-04-20T13:47:01.017Z,94205.91
2023-04-20T13:49:29.015Z,94199.66
2023-04-20T13:51:55.624Z,94199.53
2023-04-20T13:54:22.221Z,94202.22
2023-04-20T13:56:48.825Z,94199.13
2023-04-20T13:59:15.538Z,94194.03
2023-04-20T14:01:42.491Z,94186.50
2023-04-20T14:04:09.883Z,94191.13
2023-04-20T14:06:38.312Z,94195.84
2023-04-20T14:09:04.924Z,94191.56
2023-04-20T14:11:31.551Z,94192.16
2023-04-20T14:13:58.230Z,94188.47
2023-04-20T14:16:25.748Z,94181.50
2023-04-20T14:18:52.505Z,94184.03
2023-04-20T14:21:19.118Z,94187.47
2023-04-20T14:23:47.121Z,94183.81
2023-04-20T14:26:13.712Z,94192.97
2023-04-20T14:28:40.398Z,94192.19
2023-04-20T14:31:07.017Z,94198.72
2023-04-20T14:33:33.595Z,94200.44
2023-04-20T14:36:00.355Z,94183.94
2023-04-20T14:38:26.947Z,94196.66
2023-04-20T14:40:54.897Z,94201.69
2023-04-20T14:43:21.989Z,94201.69
2023-04-20T14:45:50.501Z,94192.16
2023-04-20T14:48:17.906Z,94199.16
2023-04-20T14:50:44.484Z,94207.00
2023-04-20T14:53:11.120Z,94199.06
2023-04-20T14:55:37.711Z,94198.59
2023-04-20T14:58:05.717Z,94205.38
2023-04-20T15:00:32.812Z,94200.69
2023-04-20T15:03:00.656Z,94203.09
2023-04-20T15:05:27.916Z,94206.75
2023-04-20T15:07:54.660Z,94200.69
2023-04-20T15:10:21.795Z,94208.22
2023-04-20T15:12:48.628Z,94197.47
2023-04-20T15:15:17.068Z,94203.53
2023-04-20T15:17:44.732Z,94207.56
2023-04-20T15:20:12.003Z,94218.91
2023-04-20T15:22:38.648Z,94222.56
2023-04-20T15:25:06.255Z,94218.91
2023-04-20T15:27:32.954Z,94216.34
2023-04-20T15:29:59.589Z,94224.50
2023-04-20T15:32:30.012Z,94222.56
2023-04-20T15:34:56.745Z,94218.22
2023-04-20T15:37:23.360Z,94212.13
2023-04-20T15:39:50.428Z,94209.34
2023-04-20T15:42:17.019Z,94214.84
2023-04-20T15:44:43.635Z,94208.91
2023-04-20T15:47:10.430Z,94219.78
2023-04-20T15:49:40.646Z,94223.59
2023-04-20T15:52:08.443Z,94217.41
2023-04-20T15:54:35.227Z,94225.78
2023-04-20T15:57:03.229Z,94234.25
2023-04-20T15:59:30.313Z,94227.25
2023-04-20T16:01:56.972Z,94228.84
2023-04-20T16:04:24.264Z,94231.03
2023-04-20T16:06:52.728Z,94228.50
2023-04-20T16:09:20.313Z,94224.03
2023-04-20T16:11:47.752Z,94229.06
2023-04-20T16:14:14.328Z,94237.53
2023-04-20T16:16:40.938Z,94232.16
2023-04-20T16:19:07.508Z,94227.69
2023-04-20T16:21:34.314Z,94228.00
2023-04-20T16:24:02.345Z,94241.81
2023-04-20T16:26:29.088Z,94235.81
2023-04-20T16:28:55.686Z,94238.34
2023-04-20T16:31:22.562Z,94238.03
2023-04-20T16:33:49.244Z,94243.97
2023-04-20T16:36:18.842Z,94242.72
2023-04-20T16:38:45.646Z,94247.97
2023-04-20T16:41:13.597Z,94243.16
2023-04-20T16:43:41.016Z,94234.09
2023-04-20T16:46:11.815Z,94234.78
2023-04-20T16:48:38.490Z,94246.13
2023-04-20T16:51:05.179Z,94245.31
2023-04-20T16:53:31.761Z,94243.06
2023-04-20T16:55:58.358Z,94255.09
2023-04-20T16:58:26.752Z,94259.31
2023-04-20T17:00:53.473Z,94269.75
2023-04-20T17:03:21.028Z,94265.97
2023-04-20T17:05:47.698Z,94269.28
2023-04-20T17:08:14.281Z,94271.09
2023-04-20T17:10:40.865Z,94272.69
2023-04-20T17:13:07.469Z,94272.34
2023-04-20T17:15:35.452Z,94276.41
2023-04-20T17:18:02.225Z,94269.63
2023-04-20T17:20:28.860Z,94279.41
2023-04-20T17:22:55.525Z,94282.31
2023-04-20T17:25:22.198Z,94284.53
2023-04-20T17:27:48.779Z,94300.44
2023-04-20T17:30:15.554Z,94291.53
2023-04-20T17:32:43.681Z,94301.94
2023-04-20T17:35:10.537Z,94309.97
2023-04-20T17:37:37.178Z,94322.00
2023-04-20T17:40:06.111Z,94324.16
2023-04-20T17:42:32.688Z,94328.41
2023-04-20T17:44:59.258Z,94323.38
2023-04-20T17:47:28.253Z,94329.66
2023-04-20T17:49:56.299Z,94328.53
2023-04-20T17:52:22.986Z,94333.47
2023-04-20T17:54:49.619Z,94345.59
2023-04-20T17:57:16.547Z,94349.84
2023-04-20T17:59:43.163Z,94360.63
2023-04-20T18:02:10.116Z,94369.44
2023-04-20T18:04:37.288Z,94370.59
2023-04-20T18:07:06.059Z,94370.78
2023-04-20T18:09:32.681Z,94379.72
2023-04-20T18:11:59.250Z,94373.69
2023-04-20T18:14:25.846Z,94383.69
2023-04-20T18:16:54.792Z,94382.59
2023-04-20T18:19:21.411Z,94391.66
2023-04-20T18:21:48.050Z,94398.41
2023-04-20T18:24:16.185Z,94399.63
2023-04-20T18:26:42.850Z,94404.53
2023-04-20T18:29:09.570Z,94410.44
2023-04-20T18:31:37.219Z,94411.81
2023-04-20T18:34:04.136Z,94409.41
2023-04-20T18:36:32.112Z,94409.66
2023-04-20T18:38:58.813Z,94420.28
2023-04-20T18:41:27.697Z,94428.28
2023-04-20T18:43:55.579Z,94439.94
2023-04-20T18:46:22.492Z,94432.63
2023-04-20T18:48:49.139Z,94430.88
2023-04-20T18:51:15.835Z,94425.28
2023-04-20T18:53:42.459Z,94423.13
2023-04-20T18:56:10.133Z,94430.94
2023-04-20T18:58:38.353Z,94425.63
2023-04-20T19:01:05.008Z,94436.47
2023-04-20T19:03:32.184Z,94431.38
2023-04-20T19:05:59.224Z,94432.03
2023-04-20T19:08:25.870Z,94442.59
2023-04-20T19:10:56.382Z,94441.06
2023-04-20T19:13:23.113Z,94440.06
2023-04-20T19:15:55.148Z,94430.84
2023-04-20T19:18:21.825Z,94452.94
2023-04-20T19:20:48.408Z,94447.78
2023-04-20T19:23:14.991Z,94447.28
2023-04-20T19:25:41.570Z,94447.28
2023-04-20T19:28:08.266Z,94454.06
2023-04-20T19:30:35.630Z,94468.59
2023-04-20T19:33:05.038Z,94467.56
2023-04-20T19:35:32.264Z,94458.06
2023-04-20T19:37:59.607Z,94455.22
2023-04-20T19:40:27.164Z,94456.72
2023-04-20T19:42:53.808Z,94450.88
2023-04-20T19:45:20.427Z,94455.34
2023-04-20T19:47:47.088Z,94456.13
2023-04-20T19:50:15.765Z,94458.09
2023-04-20T19:52:42.459Z,94452.84
2023-04-20T19:55:09.990Z,94455.47
2023-04-20T19:57:36.613Z,94452.03
2023-04-20T20:00:04.768Z,94455.47
2023-04-20T20:02:31.548Z,94449.75
2023-04-20T20:04:58.197Z,94454.22
2023-04-20T20:07:26.499Z,94463.50
2023-04-20T20:09:53.137Z,94448.72
2023-04-20T20:12:19.707Z,94448.72
2023-04-20T20:14:46.279Z,94452.72
2023-04-20T20:17:13.619Z,94446.66
2023-04-20T20:19:42.311Z,94439.78
2023-04-20T20:22:09.473Z,94441.03
2023-04-20T20:24:37.561Z,94444.25
2023-04-20T20:27:04.580Z,94446.31
2023-04-20T20:29:31.538Z,94449.75
2023-04-20T20:31:58.132Z,94459.47
2023-04-20T20:34:24.765Z,94464.19
2023-04-20T20:36:53.192Z,94459.25
2023-04-20T20:39:19.973Z,94459.72
2023-04-20T20:41:51.346Z,94463.16
2023-04-20T20:44:18.671Z,94460.28
2023-04-20T20:46:45.811Z,94460.88
2023-04-20T20:49:12.445Z,94461.66
2023-04-20T20:51:39.073Z,94458.81
2023-04-20T20:54:05.827Z,94460.88
2023-04-20T20:56:32.419Z,94468.00
2023-04-20T20:59:00.514Z,94457.44
2023-04-20T21:01:27.472Z,94456.00
2023-04-20T21:03:54.326Z,94446.28
2023-04-20T21:06:21.287Z,94460.38
2023-04-20T21:08:48.706Z,94458.69
2023-04-20T21:11:15.299Z,94456.50
2023-04-20T21:13:41.877Z,94452.69
2023-04-20T21:16:09.840Z,94443.78
2023-04-20T21:18:36.470Z,94453.63
2023-04-20T21:21:03.214Z,94458.69
2023-04-20T21:23:29.837Z,94464.63
2023-04-20T21:25:56.775Z,94465.06
2023-04-20T21:28:23.485Z,94457.41
2023-04-20T21:30:50.362Z,94458.78
2023-04-20T21:33:18.368Z,94455.34
2023-04-20T21:35:45.255Z,94456.13
2023-04-20T21:38:11.835Z,94446.28
2023-04-20T21:40:38.400Z,94449.50
2023-04-20T21:43:04.996Z,94455.13
2023-04-20T21:45:31.568Z,94460.03
2023-04-20T21:47:58.257Z,94452.94
2023-04-20T21:50:27.388Z,94455.56
2023-04-20T21:52:54.503Z,94460.84
2023-04-20T21:55:21.271Z,94449.13
2023-04-20T21:57:47.958Z,94445.47
2023-04-20T22:00:15.453Z,94452.34
2023-04-20T22:02:42.213Z,94447.31
2023-04-20T22:05:10.222Z,94454.53
2023-04-20T22:07:38.345Z,94454.41
2023-04-20T22:10:06.900Z,94459.09
2023-04-20T22:12:39.423Z,94456.59
2023-04-20T22:15:11.066Z,94454.97
2023-04-20T22:17:37.964Z,94447.19
2023-04-20T22:20:09.120Z,94414.22
2023-04-20T22:22:36.184Z,94448.44
2023-04-20T22:25:05.925Z,94449.34
2023-04-20T22:27:32.436Z,94454.28
2023-04-20T22:29:59.212Z,94451.06
2023-04-20T22:32:25.877Z,94457.34
2023-04-20T22:34:52.506Z,94454.72
2023-04-20T22:37:19.246Z,94460.00
2023-04-20T22:39:45.810Z,94464.22
2023-04-20T22:42:13.765Z,94452.66
2023-04-20T22:44:40.574Z,94459.19
2023-04-20T22:47:07.383Z,94449.09
2023-04-20T22:49:34.816Z,94455.41
2023-04-20T22:52:01.461Z,94459.84
2023-04-20T22:54:28.081Z,94460.88
2023-04-20T22:56:54.693Z,94449.75
2023-04-20T22:59:22.675Z,94457.00
2023-04-20T23:01:49.290Z,94462.84
2023-04-20T23:04:16.210Z,94462.84
2023-04-20T23:06:43.894Z,94456.88
2023-04-20T23:09:12.414Z,94465.13
2023-04-20T23:11:39.503Z,94456.88
2023-04-20T23:14:06.392Z,94463.34
2023-04-20T23:16:34.738Z,94464.50
2023-04-20T23:19:01.554Z,94464.25
2023-04-20T23:21:28.520Z,94465.50
2023-04-20T23:23:58.258Z,94449.47
2023-04-20T23:26:25.067Z,94442.72
2023-04-20T23:28:52.121Z,94441.03
2023-04-20T23:31:18.947Z,94440.91
2023-04-20T23:33:47.685Z,94439.28
2023-04-20T23:36:14.663Z,94443.19
2023-04-20T23:38:41.374Z,94449.69
2023-04-20T23:41:09.135Z,94447.41
2023-04-20T23:43:35.757Z,94448.34
2023-04-20T23:46:02.406Z,94447.66
2023-04-20T23:48:29.007Z,94443.63
2023-04-20T23:50:57.015Z,94454.97
2023-04-20T23:53:23.742Z,94457.81
2023-04-20T23:55:55.607Z,94455.19
2023-04-20T23:58:25.735Z,94458.16
